x

Passage Island, Mi (pilm4) Weather Station

2:00pm - Thu 18th Dec 2014 All times are CST. -6 hours from GMT.

  • Wind
    2mph, 3mph gusts
  • Air Temp 25°f
  • Sea Pressure 1028.1mb
  • Passage Island, Mi
  • Passage Island, Mi

More Historic Weather Station data

Upgrade to MSW Pro to gain access to the past 30 days of data for over 8000 Wavebouys and Weather Stations around the globe.

Join Pro

Comparision Forecast

View Surf forecast
   
Thu 12/18 2:00pm 2 3 mph 1028.1mb 25f
1:00pm 3 5 mph 1028.6mb 24f
12:00pm 3 5 mph 1029.4mb 23f
11:00am 6 9 mph 1029.8mb 22f
10:00am 5 9 mph 1030.4mb 22f
9:00am 3 8 mph 1030.4mb 21f
8:00am 8 13 mph 1030.4mb 20f
7:00am 8 10 mph 1030.5mb 19f
6:00am 9 13 mph 1030.6mb 19f
5:00am 7 10 mph 1030.5mb 19f
4:00am 10 13 mph 1030.3mb 19f
3:00am 9 13 mph 1030.2mb 19f
2:00am 9 13 mph 1030.1mb 19f
1:00am 10 13 mph 1030.1mb 20f
12:00am 9 13 mph 1030mb 19f
Wed 12/17 11:00pm 9 16 mph 1029.7mb 19f
10:00pm 11 16 mph 1029.7mb 17f
9:00pm 9 13 mph 1029.7mb 17f
8:00pm 14 20 mph 1029.4mb 18f
7:00pm 14 22 mph 1029.2mb 18f
6:00pm 13 20 mph 1029mb 20f
5:00pm 15 23 mph 1028.5mb 19f
4:00pm 16 25 mph 1027.6mb 19f
3:00pm 15 21 mph 1027mb 19f
2:00pm 17 24 mph 1026.4mb 19f
1:00pm 15 22 mph 1025.9mb 18f
12:00pm 18 25 mph 1025.8mb 17f
11:00am 21 29 mph 1025.9mb 18f
10:00am 22 29 mph 1026mb 17f
9:00am 15 24 mph 1025.1mb 18f
8:00am 20 26 mph 1024.4mb 18f
7:00am 18 26 mph 1024mb 19f
6:00am 21 29 mph 1023.6mb 19f
5:00am 15 24 mph 1023mb 19f
4:00am 17 26 mph 1022.8mb 19f
3:00am 14 23 mph 1022.5mb 19f
2:00am 10 17 mph 1022.4mb 19f
1:00am 13 24 mph 1022.1mb 19f
12:00am 15 24 mph 1021.9mb 19f
Tue 12/16 11:00pm 18 28 mph 1022mb 19f
10:00pm 16 25 mph 1021.8mb 20f
9:00pm 14 21 mph 1021.6mb 20f
8:00pm 15 29 mph 1021.3mb 20f
7:00pm 16 31 mph 1021mb 20f
6:00pm 16 26 mph 1020.6mb 21f
5:00pm 15 25 mph 1020.2mb 21f
4:00pm 13 20 mph 1019.8mb 22f
3:00pm 16 22 mph 1019mb 22f
2:00pm 20 26 mph 1018.3mb 22f
1:00pm 20 28 mph 1018.1mb 22f
12:00pm 21 28 mph 1018mb 22f
11:00am 18 29 mph 1018mb 23f
10:00am 21 32 mph 1017.9mb 23f
9:00am 20 28 mph 1017.5mb 23f
8:00am 20 29 mph 1016.9mb 24f
7:00am 18 26 mph 1016.5mb 24f
6:00am 18 26 mph 1016.1mb 24f
5:00am 22 31 mph 1015.3mb 24f
4:00am 22 28 mph 1014.9mb 25f
3:00am 20 31 mph 1014.3mb 26f
2:00am 24 32 mph 1013.8mb 26f
1:00am 16 22 mph 1013.6mb 26f
12:00am 15 30 mph 1013.5mb 27f
Mon 12/15 11:00pm 20 29 mph 1013.4mb 28f
10:00pm 16 30 mph 1013.2mb 29f
9:00pm 20 29 mph 1012.2mb 31f
8:00pm 16 25 mph 1012mb 32f
7:00pm 10 20 mph 1011.9mb 33f
6:00pm 10 18 mph 1011.4mb 34f
5:00pm 14 22 mph 1010.6mb 35f
4:00pm 13 22 mph 1010.2mb 36f
3:00pm 11 20 mph 1009.9mb 36f
2:00pm 10 14 mph 1009.2mb 36f
1:00pm 10 15 mph 1009mb 36f
12:00pm 3 7 mph 1009.1mb 36f
11:00am 6 8 mph 1009.5mb 37f
10:00am 5 6 mph 1009.6mb 37f
9:00am 7
mph
1009.4mb 37f
8:00am 5 6 mph 1009.1mb 39f
7:00am 5 6 mph 1009.1mb 39f
6:00am 8
mph
1009.4mb 39f
5:00am 7 8 mph 1009.6mb 39f
4:00am 5 6 mph 1010.3mb 39f
3:00am 9
mph
1010.6mb 40f
2:00am 11
mph
1010.7mb 39f
1:00am 9 10 mph 1011.2mb 38f
12:00am 7 8 mph 1012.2mb 38f
Sun 12/14 11:00pm 11
mph
1012.4mb 38f
10:00pm 10 11 mph 1013.6mb 37f